Flight Track Log - Related Links

Times and Time Zones

All times are in EDT time to prevent confusion due to time zone crossing. See the LYM752 flight status page for this flight to view local times or setup timezone preferences in your user account.

Time Position Orientation Groundspeed Altitude Reporting Facility
EDT Latitude Longitude Course Direction KTS MPH feet Rate Location/Type
Thu 07:27:48 AM 39.8167 -104.7000 270° West 122 140 7,000  Level Denver TRACON
Thu 07:28:48 AM 39.8167 -104.7500 270° West 124 143 7,800 850 Climbing Denver TRACON
Thu 07:29:48 AM 39.8000 -104.7833 237° Southwest 119 137 8,700 850 Climbing Denver TRACON
Thu 07:30:48 AM 39.8000 -104.8333 270° West 124 143 9,500 800 Climbing Denver TRACON
Thu 07:31:48 AM 39.7833 -104.8833 247° West 128 147 10,300 850 Climbing Denver TRACON
Thu 07:32:48 AM 39.7833 -104.9167 270° West 129 148 11,200 900 Climbing Denver TRACON
Thu 07:33:48 AM 39.7833 -104.9667 270° West 129 148 12,100 800 Climbing Denver TRACON
Thu 07:34:48 AM 39.7667 -105.0167 247° West 130 150 12,800 750 Climbing Denver TRACON
Thu 07:35:48 AM 39.7667 -105.0667 270° West 131 151 13,600 750 Climbing Denver TRACON
Thu 07:36:48 AM 39.7667 -105.1000 270° West 126 145 14,300 650 Climbing Denver TRACON
Thu 07:37:48 AM 39.7500 -105.1500 247° West 129 148 14,900 700 Climbing Denver TRACON
Thu 07:38:48 AM 39.7500 -105.2000 270° West 117 135 15,700 750 Climbing Denver TRACON
Thu 07:39:48 AM 39.7333 -105.2333 237° Southwest 121 139 16,400 652 Climbing Denver TRACON
Thu 07:41:06 AM 39.7342 -105.2900 271° West 116 133 17,200 522 Climbing Denver Center
Thu 07:42:06 AM 39.7297 -105.3317 262° West 117 135 17,600 400 Climbing Denver Center
Thu 07:43:06 AM 39.7244 -105.3719 260° West 113 130 18,000 248 Climbing Denver Center
Thu 07:44:07 AM 39.7206 -105.4183 264° West 135 155 18,100 50 Climbing Denver Center
Thu 07:45:07 AM 39.7167 -105.4756 265° West 158 182 18,100  Level Denver Center
Thu 07:46:07 AM 39.7139 -105.5358 267° West 166 191 18,100  Level Denver Center
Thu 07:47:07 AM 39.7117 -105.5942 267° West 161 185 18,100  Level Denver Center
Thu 07:48:07 AM 39.7061 -105.6567 263° West 173 199 18,100  Level Denver Center
Thu 07:49:08 AM 39.6942 -105.7147 255° West 165 190 18,100  Level Denver Center
Thu 07:50:08 AM 39.6811 -105.7736 254° West 170 196 18,100  Level Denver Center
Thu 07:51:08 AM 39.6689 -105.8269 253° West 165 190 18,100  Level Denver Center
Thu 07:52:08 AM 39.6592 -105.8825 257° West 159 183 18,100  Level Denver Center
Thu 07:53:09 AM 39.6503 -105.9411 259° West 164 189 18,100  Level Denver Center
Thu 07:54:09 AM 39.6386 -105.9994 255° West 167 192 18,100  Level Denver Center
Thu 07:55:09 AM 39.6247 -106.0564 252° West 168 193 18,100  Level Denver Center
Thu 07:56:09 AM 39.6097 -106.1156 252° West 171 197 18,100  Level Denver Center
Thu 07:57:10 AM 39.5925 -106.1825 252° West 174 200 18,100  Level Denver Center
Thu 07:58:10 AM 39.5786 -106.2403 253° West 168 193 18,100  Level Denver Center
Thu 07:59:10 AM 39.5650 -106.2964 253° West 164 189 18,100  Level Denver Center
Thu 08:00:10 AM 39.5519 -106.3533 253° West 164 189 18,100  Level Denver Center
Thu 08:01:11 AM 39.5392 -106.4103 254° West 164 189 18,100  Level Denver Center
Thu 08:02:11 AM 39.5256 -106.4678 253° West 166 191 18,100  Level Denver Center
Thu 08:03:12 AM 39.5142 -106.5233 255° West 170 196 18,100  Level Denver Center
Thu 08:04:12 AM 39.4992 -106.5878 253° West 169 194 18,100  Level Denver Center
Thu 08:05:12 AM 39.4864 -106.6431 253° West 168 193 18,100  Level Denver Center
Thu 08:06:13 AM 39.4750 -106.6989 255° West 167 192 18,100  Level Denver Center
Thu 08:07:13 AM 39.4617 -106.7656 255° West 170 196 18,100  Level Denver Center
Thu 08:08:14 AM 39.4508 -106.8222 256° West 170 196 18,100 50 Level Denver Center
Thu 08:09:14 AM 39.4394 -106.8778 255° West 166 191 18,200  Climbing Denver Center
Thu 08:10:15 AM 39.4283 -106.9342 256° West 167 192 18,100 -50 Descending Denver Center
Thu 08:11:15 AM 39.4164 -107.0008 257° West 170 196 18,100  Level Denver Center
Thu 08:12:16 AM 39.4069 -107.0508 256° West 170 196 18,100  Level Denver Center
Thu 08:13:16 AM 39.3958 -107.1111 257° West 171 197 18,100  Level Denver Center
Thu 08:14:17 AM 39.3847 -107.1703 256° West 170 196 18,100  Level Denver Center
Thu 08:15:17 AM 39.3731 -107.2383 258° West 171 197 18,100  Level Denver Center
Thu 08:16:18 AM 39.3644 -107.2956 259° West 169 194 18,100  Level Denver Center
Thu 08:17:18 AM 39.3550 -107.3608 259° West 167 192 18,100  Level Denver Center
Thu 08:18:19 AM 39.3469 -107.4181 260° West 168 193 18,100  Level Denver Center
Thu 08:19:20 AM 39.3378 -107.4736 258° West 166 191 18,100  Level Denver Center
Thu 08:20:20 AM 39.3236 -107.5403 255° West 170 196 18,100  Level Denver Center
Thu 08:21:21 AM 39.3125 -107.5950 255° West 167 192 18,100 -148 Level Denver Center
Thu 08:22:22 AM 39.3003 -107.6522 255° West 171 197 17,800 -744 Descending Denver Center
Thu 08:23:22 AM 39.2831 -107.7306 254° West 195 224 16,600 -942 Descending Denver Center
Thu 08:24:23 AM 39.2672 -107.7950 252° West 198 228 15,900 -689 Descending Denver Center
Thu 08:25:24 AM 39.2542 -107.8606 256° West 198 228 15,200 -397 Descending Denver Center
Thu 08:26:24 AM 39.2378 -107.9294 253° West 187 215 15,100 -446 Descending Denver Center
Thu 08:27:25 AM 39.2250 -107.9922 255° West 183 211 14,300 -934 Descending Denver Center
Thu 08:28:26 AM 39.2094 -108.0647 255° West 209 241 13,200 -1,041 Descending Denver Center
Thu 08:29:26 AM 39.1939 -108.1356 254° West 207 238 12,200 -1,041 Descending Denver Center
Thu 08:30:27 AM 39.1794 -108.2142 257° West 210 242 11,100 -836 Descending Denver Center
Thu 08:31:28 AM 39.1669 -108.2842 257° West 202 232 10,500 -492 Descending Denver Center
Thu 08:32:29 AM 39.1583 -108.3464 260° West 179 206 10,100 -393 Descending Denver Center
Thu 08:33:30 AM 39.1475 -108.4025 256° West 163 188 9,700 -1,140 Descending Denver Center
Thu 08:34:30 AM 39.1367 -108.4589 256° West 159 183 7,800 -1,537 Descending Denver Center
Thu 08:35:31 AM 39.1511 -108.5175 288° West 167 192 6,600 -984 Descending Denver Center
Thu 08:36:32 AM 39.1611 -108.5631 286° West 150 173 5,800 -836 Descending Denver Center
Thu 08:37:33 AM 39.1353 -108.5456 152° Southeast 130 150 4,900 -492 Descending Denver Center
Thu 08:38:34 AM 39.1175 -108.5156 127° Southeast 121 139 4,800 -50 Descending Denver Center
Thu 08:39:34 AM 39.1208 -108.5331 284° West 88 101 4,800  Level Denver Center

Login

Don't have an account? Register now (free) for customized features, flight alerts, and more!